Argonne, South Dakota
Current Conditions -  °F | °C
As of 8:35 AM on Thursday 27 Nov 2014 (Local Time) from KMDS Reporting Station
Clear Clear  
Wind Chill: -4°   Ceiling: Unl
Heat Index: -4°   Visibility: 10mi
Dew Point: -9°   Wind: 3mph
Humidity: 78%   Direction: 80°E
Pressure: 30.44"   Gusts: NA
Location:  44.0529°N, 97.5161°W
Report Text: KMDS 271435Z AUTO 08003KT 10SM CLR M20/M23 A3044 RMK AO2
Loading
Personal Weather Stations






























Interactive Weather Map New forecast layout! Learn more

10-Day Weather Forecast

Advertisements
Track Severe Weather on mobile